sensor_id;sensor_type;location;lat;lon;timestamp;P1;durP1;ratioP1;P2;durP2;ratioP2
71196;SDS011;58918;51.652;4.864;2022-09-20T00:00:31;2.97;;;0.80;;
71196;SDS011;58918;51.652;4.864;2022-09-20T00:02:58;5.72;;;0.95;;
71196;SDS011;58918;51.652;4.864;2022-09-20T00:05:25;4.10;;;0.75;;
71196;SDS011;58918;51.652;4.864;2022-09-20T00:07:52;2.05;;;0.63;;
71196;SDS011;58918;51.652;4.864;2022-09-20T00:10:19;3.80;;;0.90;;
71196;SDS011;58918;51.652;4.864;2022-09-20T00:12:48;4.43;;;0.90;;
71196;SDS011;58918;51.652;4.864;2022-09-20T00:15:15;2.75;;;0.95;;
71196;SDS011;58918;51.652;4.864;2022-09-20T00:17:42;3.05;;;0.75;;
71196;SDS011;58918;51.652;4.864;2022-09-20T00:20:09;4.18;;;1.05;;
71196;SDS011;58918;51.652;4.864;2022-09-20T00:22:36;5.38;;;0.90;;
71196;SDS011;58918;51.652;4.864;2022-09-20T00:25:03;5.10;;;1.10;;
71196;SDS011;58918;51.652;4.864;2022-09-20T00:27:31;2.78;;;0.85;;
71196;SDS011;58918;51.652;4.864;2022-09-20T00:29:58;3.72;;;1.10;;
71196;SDS011;58918;51.652;4.864;2022-09-20T00:32:25;4.55;;;1.00;;
71196;SDS011;58918;51.652;4.864;2022-09-20T00:34:52;3.65;;;1.05;;
71196;SDS011;58918;51.652;4.864;2022-09-20T00:37:37;4.25;;;1.00;;
71196;SDS011;58918;51.652;4.864;2022-09-20T00:42:32;4.60;;;1.00;;
71196;SDS011;58918;51.652;4.864;2022-09-20T00:44:59;5.00;;;1.13;;
71196;SDS011;58918;51.652;4.864;2022-09-20T00:47:35;3.67;;;0.95;;
71196;SDS011;58918;51.652;4.864;2022-09-20T00:52:31;3.70;;;1.33;;
71196;SDS011;58918;51.652;4.864;2022-09-20T00:54:58;2.08;;;0.80;;
71196;SDS011;58918;51.652;4.864;2022-09-20T00:57:26;4.13;;;1.10;;
71196;SDS011;58918;51.652;4.864;2022-09-20T00:59:53;4.50;;;1.00;;
71196;SDS011;58918;51.652;4.864;2022-09-20T01:02:22;3.20;;;0.73;;
71196;SDS011;58918;51.652;4.864;2022-09-20T01:04:51;5.93;;;1.10;;
71196;SDS011;58918;51.652;4.864;2022-09-20T01:07:19;4.40;;;1.10;;
71196;SDS011;58918;51.652;4.864;2022-09-20T01:09:48;3.28;;;0.90;;
71196;SDS011;58918;51.652;4.864;2022-09-20T01:12:20;3.50;;;0.80;;
71196;SDS011;58918;51.652;4.864;2022-09-20T01:14:48;3.20;;;0.98;;
71196;SDS011;58918;51.652;4.864;2022-09-20T01:17:16;2.92;;;1.05;;
71196;SDS011;58918;51.652;4.864;2022-09-20T01:22:25;4.80;;;0.90;;
71196;SDS011;58918;51.652;4.864;2022-09-20T01:30:09;3.67;;;0.80;;
71196;SDS011;58918;51.652;4.864;2022-09-20T01:35:23;4.18;;;1.08;;
71196;SDS011;58918;51.652;4.864;2022-09-20T01:38:01;4.53;;;0.95;;
71196;SDS011;58918;51.652;4.864;2022-09-20T01:41:06;2.83;;;0.90;;
71196;SDS011;58918;51.652;4.864;2022-09-20T01:45:58;2.70;;;0.80;;
71196;SDS011;58918;51.652;4.864;2022-09-20T01:48:34;6.63;;;1.17;;
71196;SDS011;58918;51.652;4.864;2022-09-20T01:56:35;4.10;;;0.88;;
71196;SDS011;58918;51.652;4.864;2022-09-20T02:12:21;4.00;;;1.00;;
71196;SDS011;58918;51.652;4.864;2022-09-20T02:17:32;2.53;;;0.80;;
71196;SDS011;58918;51.652;4.864;2022-09-20T02:25:16;6.78;;;0.90;;
71196;SDS011;58918;51.652;4.864;2022-09-20T02:30:34;3.30;;;0.80;;
71196;SDS011;58918;51.652;4.864;2022-09-20T02:33:10;4.53;;;0.90;;
71196;SDS011;58918;51.652;4.864;2022-09-20T02:35:48;3.38;;;1.02;;
71196;SDS011;58918;51.652;4.864;2022-09-20T02:38:35;4.65;;;1.00;;
71196;SDS011;58918;51.652;4.864;2022-09-20T02:41:18;3.72;;;0.82;;
71196;SDS011;58918;51.652;4.864;2022-09-20T02:59:09;3.65;;;0.80;;
71196;SDS011;58918;51.652;4.864;2022-09-20T03:01:46;5.25;;;1.35;;
71196;SDS011;58918;51.652;4.864;2022-09-20T03:12:29;4.97;;;1.17;;
71196;SDS011;58918;51.652;4.864;2022-09-20T03:20:40;5.15;;;1.15;;
71196;SDS011;58918;51.652;4.864;2022-09-20T03:23:13;4.10;;;1.08;;
71196;SDS011;58918;51.652;4.864;2022-09-20T03:25:56;2.95;;;0.85;;
71196;SDS011;58918;51.652;4.864;2022-09-20T03:42:10;3.08;;;1.00;;
71196;SDS011;58918;51.652;4.864;2022-09-20T03:44:54;3.40;;;0.80;;
71196;SDS011;58918;51.652;4.864;2022-09-20T03:53:04;2.47;;;0.75;;
71196;SDS011;58918;51.652;4.864;2022-09-20T03:58:38;3.42;;;0.75;;
71196;SDS011;58918;51.652;4.864;2022-09-20T04:04:11;3.47;;;0.73;;
71196;SDS011;58918;51.652;4.864;2022-09-20T04:11:46;3.42;;;0.95;;
71196;SDS011;58918;51.652;4.864;2022-09-20T04:14:19;4.38;;;0.85;;
71196;SDS011;58918;51.652;4.864;2022-09-20T04:17:34;5.65;;;1.05;;
71196;SDS011;58918;51.652;4.864;2022-09-20T04:19:43;3.17;;;0.95;;
71196;SDS011;58918;51.652;4.864;2022-09-20T04:22:15;2.75;;;0.80;;
71196;SDS011;58918;51.652;4.864;2022-09-20T04:25:04;2.50;;;0.90;;
71196;SDS011;58918;51.652;4.864;2022-09-20T04:27:39;3.80;;;0.93;;
71196;SDS011;58918;51.652;4.864;2022-09-20T04:30:21;3.63;;;0.68;;
71196;SDS011;58918;51.652;4.864;2022-09-20T04:32:57;2.47;;;0.77;;
71196;SDS011;58918;51.652;4.864;2022-09-20T04:35:46;2.55;;;0.70;;
71196;SDS011;58918;51.652;4.864;2022-09-20T04:38:35;3.60;;;0.80;;
71196;SDS011;58918;51.652;4.864;2022-09-20T04:43:41;6.10;;;1.33;;
71196;SDS011;58918;51.652;4.864;2022-09-20T05:05:20;6.53;;;0.93;;
71196;SDS011;58918;51.652;4.864;2022-09-20T05:10:51;5.68;;;1.17;;
71196;SDS011;58918;51.652;4.864;2022-09-20T05:13:57;5.45;;;1.00;;
71196;SDS011;58918;51.652;4.864;2022-09-20T05:16:35;5.30;;;0.70;;
71196;SDS011;58918;51.652;4.864;2022-09-20T05:22:01;4.03;;;0.85;;
71196;SDS011;58918;51.652;4.864;2022-09-20T05:24:54;5.93;;;0.85;;
71196;SDS011;58918;51.652;4.864;2022-09-20T05:30:25;5.78;;;1.13;;
71196;SDS011;58918;51.652;4.864;2022-09-20T05:43:32;3.17;;;0.90;;
71196;SDS011;58918;51.652;4.864;2022-09-20T05:49:17;2.45;;;0.70;;
71196;SDS011;58918;51.652;4.864;2022-09-20T05:51:58;3.28;;;0.77;;
71196;SDS011;58918;51.652;4.864;2022-09-20T06:02:15;2.30;;;0.77;;
71196;SDS011;58918;51.652;4.864;2022-09-20T06:04:48;2.60;;;0.63;;
71196;SDS011;58918;51.652;4.864;2022-09-20T06:10:22;4.80;;;0.73;;
71196;SDS011;58918;51.652;4.864;2022-09-20T06:13:10;3.60;;;0.93;;
71196;SDS011;58918;51.652;4.864;2022-09-20T06:15:49;4.47;;;0.80;;
71196;SDS011;58918;51.652;4.864;2022-09-20T06:18:28;1.88;;;0.63;;
71196;SDS011;58918;51.652;4.864;2022-09-20T06:23:44;3.35;;;0.75;;
71196;SDS011;58918;51.652;4.864;2022-09-20T06:26:20;2.33;;;0.68;;
71196;SDS011;58918;51.652;4.864;2022-09-20T06:28:56;2.80;;;0.80;;
71196;SDS011;58918;51.652;4.864;2022-09-20T06:31:24;2.70;;;0.73;;
71196;SDS011;58918;51.652;4.864;2022-09-20T06:36:31;5.15;;;0.88;;
71196;SDS011;58918;51.652;4.864;2022-09-20T06:42:06;2.92;;;0.80;;
71196;SDS011;58918;51.652;4.864;2022-09-20T06:44:35;2.67;;;0.80;;
71196;SDS011;58918;51.652;4.864;2022-09-20T06:47:08;4.15;;;0.73;;
71196;SDS011;58918;51.652;4.864;2022-09-20T06:49:35;4.40;;;0.68;;
71196;SDS011;58918;51.652;4.864;2022-09-20T06:52:03;2.92;;;0.75;;
71196;SDS011;58918;51.652;4.864;2022-09-20T06:54:30;2.63;;;0.75;;
71196;SDS011;58918;51.652;4.864;2022-09-20T06:56:57;4.40;;;0.93;;
71196;SDS011;58918;51.652;4.864;2022-09-20T06:59:27;3.03;;;0.70;;
71196;SDS011;58918;51.652;4.864;2022-09-20T07:01:55;2.08;;;0.70;;
71196;SDS011;58918;51.652;4.864;2022-09-20T07:04:22;3.50;;;0.80;;
71196;SDS011;58918;51.652;4.864;2022-09-20T07:06:52;4.38;;;0.90;;
71196;SDS011;58918;51.652;4.864;2022-09-20T07:09:25;6.32;;;0.93;;
71196;SDS011;58918;51.652;4.864;2022-09-20T07:11:53;3.90;;;0.88;;
71196;SDS011;58918;51.652;4.864;2022-09-20T07:14:22;3.90;;;0.90;;
71196;SDS011;58918;51.652;4.864;2022-09-20T07:16:50;2.38;;;0.95;;
71196;SDS011;58918;51.652;4.864;2022-09-20T07:19:17;4.50;;;0.90;;
71196;SDS011;58918;51.652;4.864;2022-09-20T07:21:44;4.07;;;0.90;;
71196;SDS011;58918;51.652;4.864;2022-09-20T07:24:11;3.33;;;0.80;;
71196;SDS011;58918;51.652;4.864;2022-09-20T07:26:52;4.22;;;0.68;;
71196;SDS011;58918;51.652;4.864;2022-09-20T07:29:20;4.07;;;0.70;;
71196;SDS011;58918;51.652;4.864;2022-09-20T07:31:48;2.08;;;0.75;;
71196;SDS011;58918;51.652;4.864;2022-09-20T07:34:16;6.45;;;1.00;;
71196;SDS011;58918;51.652;4.864;2022-09-20T07:36:48;3.47;;;0.88;;
71196;SDS011;58918;51.652;4.864;2022-09-20T07:39:16;1.83;;;0.63;;
71196;SDS011;58918;51.652;4.864;2022-09-20T07:41:44;3.95;;;0.75;;
71196;SDS011;58918;51.652;4.864;2022-09-20T07:44:16;3.50;;;0.80;;
71196;SDS011;58918;51.652;4.864;2022-09-20T07:46:47;3.25;;;0.73;;
71196;SDS011;58918;51.652;4.864;2022-09-20T07:49:14;4.10;;;0.65;;
71196;SDS011;58918;51.652;4.864;2022-09-20T07:51:42;3.03;;;1.00;;
71196;SDS011;58918;51.652;4.864;2022-09-20T07:54:09;4.15;;;0.70;;
71196;SDS011;58918;51.652;4.864;2022-09-20T07:56:37;3.20;;;0.70;;
71196;SDS011;58918;51.652;4.864;2022-09-20T07:59:04;3.05;;;0.90;;
71196;SDS011;58918;51.652;4.864;2022-09-20T08:01:31;3.97;;;0.82;;
71196;SDS011;58918;51.652;4.864;2022-09-20T08:03:59;3.85;;;1.00;;
71196;SDS011;58918;51.652;4.864;2022-09-20T08:06:26;2.75;;;0.75;;
71196;SDS011;58918;51.652;4.864;2022-09-20T08:08:54;2.42;;;0.90;;
71196;SDS011;58918;51.652;4.864;2022-09-20T08:11:22;3.03;;;0.80;;
71196;SDS011;58918;51.652;4.864;2022-09-20T08:13:53;5.43;;;0.82;;
71196;SDS011;58918;51.652;4.864;2022-09-20T08:16:40;4.22;;;0.90;;
71196;SDS011;58918;51.652;4.864;2022-09-20T08:19:10;3.42;;;0.80;;
71196;SDS011;58918;51.652;4.864;2022-09-20T08:21:40;3.20;;;1.00;;
71196;SDS011;58918;51.652;4.864;2022-09-20T08:24:07;3.90;;;1.30;;
71196;SDS011;58918;51.652;4.864;2022-09-20T08:26:34;2.85;;;0.90;;
71196;SDS011;58918;51.652;4.864;2022-09-20T08:29:02;3.92;;;1.00;;
71196;SDS011;58918;51.652;4.864;2022-09-20T08:31:31;2.35;;;0.80;;
71196;SDS011;58918;51.652;4.864;2022-09-20T08:34:03;3.20;;;0.80;;
71196;SDS011;58918;51.652;4.864;2022-09-20T08:36:32;3.00;;;0.93;;
71196;SDS011;58918;51.652;4.864;2022-09-20T08:39:02;3.90;;;0.82;;
71196;SDS011;58918;51.652;4.864;2022-09-20T08:41:53;3.75;;;0.88;;
71196;SDS011;58918;51.652;4.864;2022-09-20T08:44:26;8.65;;;1.35;;
71196;SDS011;58918;51.652;4.864;2022-09-20T08:49:28;4.20;;;1.17;;
71196;SDS011;58918;51.652;4.864;2022-09-20T08:51:56;2.20;;;0.80;;
71196;SDS011;58918;51.652;4.864;2022-09-20T08:54:24;2.45;;;0.80;;
71196;SDS011;58918;51.652;4.864;2022-09-20T08:57:00;2.40;;;0.85;;
71196;SDS011;58918;51.652;4.864;2022-09-20T08:59:30;4.53;;;0.90;;
71196;SDS011;58918;51.652;4.864;2022-09-20T09:01:57;2.85;;;0.80;;
71196;SDS011;58918;51.652;4.864;2022-09-20T09:04:35;2.65;;;0.88;;
71196;SDS011;58918;51.652;4.864;2022-09-20T09:07:02;3.50;;;0.70;;
71196;SDS011;58918;51.652;4.864;2022-09-20T09:09:31;3.33;;;0.93;;
71196;SDS011;58918;51.652;4.864;2022-09-20T09:12:03;4.25;;;0.85;;
71196;SDS011;58918;51.652;4.864;2022-09-20T09:14:31;6.07;;;1.00;;
71196;SDS011;58918;51.652;4.864;2022-09-20T09:17:15;4.10;;;0.70;;
71196;SDS011;58918;51.652;4.864;2022-09-20T09:22:10;2.75;;;0.98;;
71196;SDS011;58918;51.652;4.864;2022-09-20T09:24:37;3.03;;;0.85;;
71196;SDS011;58918;51.652;4.864;2022-09-20T09:27:17;1.25;;;0.57;;
71196;SDS011;58918;51.652;4.864;2022-09-20T09:29:49;4.47;;;0.70;;
71196;SDS011;58918;51.652;4.864;2022-09-20T09:32:30;6.13;;;0.90;;
71196;SDS011;58918;51.652;4.864;2022-09-20T09:37:59;4.70;;;0.85;;
71196;SDS011;58918;51.652;4.864;2022-09-20T09:40:27;3.17;;;0.70;;
71196;SDS011;58918;51.652;4.864;2022-09-20T09:42:56;2.58;;;0.75;;
71196;SDS011;58918;51.652;4.864;2022-09-20T09:45:36;2.22;;;0.70;;
71196;SDS011;58918;51.652;4.864;2022-09-20T09:48:26;1.70;;;0.57;;
71196;SDS011;58918;51.652;4.864;2022-09-20T09:53:36;3.28;;;0.75;;
71196;SDS011;58918;51.652;4.864;2022-09-20T10:02:07;2.58;;;0.80;;
71196;SDS011;58918;51.652;4.864;2022-09-20T10:07:33;4.55;;;0.90;;
71196;SDS011;58918;51.652;4.864;2022-09-20T10:15:26;2.88;;;0.63;;
71196;SDS011;58918;51.652;4.864;2022-09-20T10:18:16;3.03;;;0.80;;
71196;SDS011;58918;51.652;4.864;2022-09-20T10:20:48;5.32;;;0.75;;
71196;SDS011;58918;51.652;4.864;2022-09-20T10:23:27;3.22;;;0.73;;
71196;SDS011;58918;51.652;4.864;2022-09-20T10:26:46;7.13;;;0.80;;
71196;SDS011;58918;51.652;4.864;2022-09-20T10:29:27;3.45;;;1.05;;
71196;SDS011;58918;51.652;4.864;2022-09-20T10:32:20;3.45;;;0.63;;
71196;SDS011;58918;51.652;4.864;2022-09-20T10:42:46;3.38;;;0.60;;
71196;SDS011;58918;51.652;4.864;2022-09-20T10:45:47;15.02;;;2.65;;
71196;SDS011;58918;51.652;4.864;2022-09-20T10:48:40;3.25;;;0.75;;
71196;SDS011;58918;51.652;4.864;2022-09-20T10:53:48;1.92;;;0.70;;
71196;SDS011;58918;51.652;4.864;2022-09-20T10:56:39;2.38;;;0.65;;
71196;SDS011;58918;51.652;4.864;2022-09-20T11:01:54;2.80;;;0.80;;
71196;SDS011;58918;51.652;4.864;2022-09-20T11:04:43;3.20;;;0.63;;
71196;SDS011;58918;51.652;4.864;2022-09-20T11:09:43;4.35;;;0.77;;
71196;SDS011;58918;51.652;4.864;2022-09-20T11:15:01;2.70;;;0.60;;
71196;SDS011;58918;51.652;4.864;2022-09-20T11:17:37;2.08;;;0.60;;
71196;SDS011;58918;51.652;4.864;2022-09-20T11:20:16;5.25;;;1.42;;
71196;SDS011;58918;51.652;4.864;2022-09-20T11:22:46;3.92;;;0.63;;
71196;SDS011;58918;51.652;4.864;2022-09-20T11:25:29;1.95;;;0.60;;
71196;SDS011;58918;51.652;4.864;2022-09-20T11:28:06;3.25;;;0.60;;
71196;SDS011;58918;51.652;4.864;2022-09-20T11:30:35;2.72;;;0.63;;
71196;SDS011;58918;51.652;4.864;2022-09-20T11:33:20;3.20;;;0.90;;
71196;SDS011;58918;51.652;4.864;2022-09-20T11:35:52;6.25;;;1.20;;
71196;SDS011;58918;51.652;4.864;2022-09-20T11:38:28;5.53;;;1.33;;
71196;SDS011;58918;51.652;4.864;2022-09-20T11:41:01;6.30;;;1.25;;
71196;SDS011;58918;51.652;4.864;2022-09-20T11:43:30;4.95;;;0.80;;
71196;SDS011;58918;51.652;4.864;2022-09-20T11:45:58;6.05;;;1.10;;
71196;SDS011;58918;51.652;4.864;2022-09-20T11:48:28;4.28;;;0.90;;
71196;SDS011;58918;51.652;4.864;2022-09-20T11:56:27;4.35;;;0.90;;
71196;SDS011;58918;51.652;4.864;2022-09-20T11:58:59;2.83;;;0.77;;
71196;SDS011;58918;51.652;4.864;2022-09-20T12:01:31;3.72;;;1.40;;
71196;SDS011;58918;51.652;4.864;2022-09-20T12:04:22;3.38;;;0.70;;
71196;SDS011;58918;51.652;4.864;2022-09-20T12:07:15;5.20;;;0.70;;
71196;SDS011;58918;51.652;4.864;2022-09-20T12:12:27;5.70;;;0.75;;
71196;SDS011;58918;51.652;4.864;2022-09-20T12:14:57;4.18;;;0.90;;
71196;SDS011;58918;51.652;4.864;2022-09-20T12:25:58;3.15;;;0.80;;
71196;SDS011;58918;51.652;4.864;2022-09-20T12:28:32;4.97;;;1.10;;
71196;SDS011;58918;51.652;4.864;2022-09-20T12:36:33;3.25;;;0.98;;
71196;SDS011;58918;51.652;4.864;2022-09-20T12:41:42;9.93;;;0.85;;
71196;SDS011;58918;51.652;4.864;2022-09-20T12:47:04;5.32;;;0.85;;
71196;SDS011;58918;51.652;4.864;2022-09-20T13:00:39;4.43;;;0.65;;
71196;SDS011;58918;51.652;4.864;2022-09-20T13:05:47;4.20;;;0.77;;
71196;SDS011;58918;51.652;4.864;2022-09-20T13:08:18;5.25;;;0.70;;
71196;SDS011;58918;51.652;4.864;2022-09-20T13:16:06;4.68;;;0.60;;
71196;SDS011;58918;51.652;4.864;2022-09-20T13:18:38;3.47;;;0.70;;
71196;SDS011;58918;51.652;4.864;2022-09-20T13:21:06;2.25;;;0.70;;
71196;SDS011;58918;51.652;4.864;2022-09-20T13:23:36;4.18;;;0.90;;
71196;SDS011;58918;51.652;4.864;2022-09-20T13:28:36;1.83;;;0.63;;
71196;SDS011;58918;51.652;4.864;2022-09-20T13:34:18;1.67;;;0.50;;
71196;SDS011;58918;51.652;4.864;2022-09-20T13:36:46;2.70;;;0.85;;
71196;SDS011;58918;51.652;4.864;2022-09-20T13:39:28;4.68;;;0.70;;
71196;SDS011;58918;51.652;4.864;2022-09-20T13:41:59;1.92;;;0.50;;
71196;SDS011;58918;51.652;4.864;2022-09-20T13:44:28;2.42;;;0.60;;
71196;SDS011;58918;51.652;4.864;2022-09-20T13:46:59;3.20;;;0.60;;
71196;SDS011;58918;51.652;4.864;2022-09-20T13:49:30;1.98;;;0.73;;
71196;SDS011;58918;51.652;4.864;2022-09-20T13:51:57;1.17;;;0.50;;
71196;SDS011;58918;51.652;4.864;2022-09-20T13:57:02;1.65;;;0.52;;
71196;SDS011;58918;51.652;4.864;2022-09-20T13:59:43;4.90;;;0.70;;
71196;SDS011;58918;51.652;4.864;2022-09-20T14:02:21;3.42;;;0.50;;
71196;SDS011;58918;51.652;4.864;2022-09-20T14:04:50;3.10;;;0.70;;
71196;SDS011;58918;51.652;4.864;2022-09-20T14:07:19;2.25;;;0.50;;
71196;SDS011;58918;51.652;4.864;2022-09-20T14:09:47;4.00;;;0.82;;
71196;SDS011;58918;51.652;4.864;2022-09-20T14:12:15;3.42;;;0.70;;
71196;SDS011;58918;51.652;4.864;2022-09-20T14:14:42;2.50;;;0.70;;
71196;SDS011;58918;51.652;4.864;2022-09-20T14:17:10;3.38;;;0.70;;
71196;SDS011;58918;51.652;4.864;2022-09-20T14:19:40;2.33;;;0.50;;
71196;SDS011;58918;51.652;4.864;2022-09-20T14:22:13;3.47;;;0.60;;
71196;SDS011;58918;51.652;4.864;2022-09-20T14:24:42;3.20;;;0.75;;
71196;SDS011;58918;51.652;4.864;2022-09-20T14:27:22;5.70;;;0.90;;
71196;SDS011;58918;51.652;4.864;2022-09-20T14:29:53;2.55;;;0.60;;
71196;SDS011;58918;51.652;4.864;2022-09-20T14:32:25;2.40;;;0.82;;
71196;SDS011;58918;51.652;4.864;2022-09-20T14:39:55;4.43;;;0.98;;
71196;SDS011;58918;51.652;4.864;2022-09-20T14:42:30;4.53;;;0.80;;
71196;SDS011;58918;51.652;4.864;2022-09-20T14:44:59;4.47;;;0.85;;
71196;SDS011;58918;51.652;4.864;2022-09-20T14:47:36;2.00;;;0.60;;
71196;SDS011;58918;51.652;4.864;2022-09-20T14:50:21;3.80;;;0.70;;
71196;SDS011;58918;51.652;4.864;2022-09-20T14:55:39;4.70;;;0.80;;
71196;SDS011;58918;51.652;4.864;2022-09-20T14:58:10;4.47;;;0.88;;
71196;SDS011;58918;51.652;4.864;2022-09-20T15:03:28;3.17;;;1.00;;
71196;SDS011;58918;51.652;4.864;2022-09-20T15:05:56;3.65;;;0.73;;
71196;SDS011;58918;51.652;4.864;2022-09-20T15:08:23;3.47;;;0.90;;
71196;SDS011;58918;51.652;4.864;2022-09-20T15:10:50;4.80;;;0.90;;
71196;SDS011;58918;51.652;4.864;2022-09-20T15:13:17;4.00;;;1.20;;
71196;SDS011;58918;51.652;4.864;2022-09-20T15:15:47;2.55;;;0.80;;
71196;SDS011;58918;51.652;4.864;2022-09-20T15:20:46;3.28;;;0.90;;
71196;SDS011;58918;51.652;4.864;2022-09-20T15:23:13;5.90;;;1.20;;
71196;SDS011;58918;51.652;4.864;2022-09-20T15:25:41;3.42;;;0.88;;
71196;SDS011;58918;51.652;4.864;2022-09-20T15:28:09;2.55;;;0.90;;
71196;SDS011;58918;51.652;4.864;2022-09-20T15:30:37;5.50;;;1.20;;
71196;SDS011;58918;51.652;4.864;2022-09-20T15:33:04;2.75;;;0.90;;
71196;SDS011;58918;51.652;4.864;2022-09-20T15:35:31;6.40;;;1.10;;
71196;SDS011;58918;51.652;4.864;2022-09-20T15:37:58;3.70;;;0.98;;
71196;SDS011;58918;51.652;4.864;2022-09-20T15:40:25;3.08;;;0.77;;
71196;SDS011;58918;51.652;4.864;2022-09-20T15:42:56;2.40;;;0.70;;
71196;SDS011;58918;51.652;4.864;2022-09-20T15:45:25;2.90;;;0.80;;
71196;SDS011;58918;51.652;4.864;2022-09-20T15:47:53;2.88;;;0.70;;
71196;SDS011;58918;51.652;4.864;2022-09-20T15:50:20;3.70;;;0.90;;
71196;SDS011;58918;51.652;4.864;2022-09-20T15:52:48;2.65;;;0.70;;
71196;SDS011;58918;51.652;4.864;2022-09-20T15:55:17;4.75;;;0.80;;
71196;SDS011;58918;51.652;4.864;2022-09-20T15:57:44;3.83;;;0.70;;
71196;SDS011;58918;51.652;4.864;2022-09-20T16:00:12;5.30;;;1.00;;
71196;SDS011;58918;51.652;4.864;2022-09-20T16:02:39;2.38;;;0.70;;
71196;SDS011;58918;51.652;4.864;2022-09-20T16:05:06;2.67;;;0.60;;
71196;SDS011;58918;51.652;4.864;2022-09-20T16:07:35;4.70;;;0.75;;
71196;SDS011;58918;51.652;4.864;2022-09-20T16:10:07;5.88;;;0.80;;
71196;SDS011;58918;51.652;4.864;2022-09-20T16:12:35;3.40;;;0.68;;
71196;SDS011;58918;51.652;4.864;2022-09-20T16:15:03;3.78;;;0.98;;
71196;SDS011;58918;51.652;4.864;2022-09-20T16:17:30;2.20;;;0.60;;
71196;SDS011;58918;51.652;4.864;2022-09-20T16:20:18;4.82;;;0.75;;
71196;SDS011;58918;51.652;4.864;2022-09-20T16:22:46;3.47;;;0.98;;
71196;SDS011;58918;51.652;4.864;2022-09-20T16:25:15;3.53;;;0.75;;
71196;SDS011;58918;51.652;4.864;2022-09-20T16:27:42;4.00;;;0.80;;
71196;SDS011;58918;51.652;4.864;2022-09-20T16:32:39;7.45;;;1.25;;
71196;SDS011;58918;51.652;4.864;2022-09-20T16:35:06;2.33;;;0.70;;
71196;SDS011;58918;51.652;4.864;2022-09-20T16:37:34;2.05;;;0.60;;
71196;SDS011;58918;51.652;4.864;2022-09-20T16:40:02;3.60;;;0.80;;
71196;SDS011;58918;51.652;4.864;2022-09-20T16:42:29;3.05;;;1.17;;
71196;SDS011;58918;51.652;4.864;2022-09-20T16:44:58;4.68;;;1.08;;
71196;SDS011;58918;51.652;4.864;2022-09-20T16:47:25;4.93;;;0.82;;
71196;SDS011;58918;51.652;4.864;2022-09-20T16:49:52;4.47;;;0.82;;
71196;SDS011;58918;51.652;4.864;2022-09-20T16:52:22;2.00;;;0.70;;
71196;SDS011;58918;51.652;4.864;2022-09-20T16:54:51;3.58;;;0.90;;
71196;SDS011;58918;51.652;4.864;2022-09-20T16:57:19;5.30;;;0.77;;
71196;SDS011;58918;51.652;4.864;2022-09-20T16:59:48;2.53;;;0.63;;
71196;SDS011;58918;51.652;4.864;2022-09-20T17:02:18;2.90;;;0.75;;
71196;SDS011;58918;51.652;4.864;2022-09-20T17:04:45;5.13;;;0.63;;
71196;SDS011;58918;51.652;4.864;2022-09-20T17:07:21;3.75;;;0.70;;
71196;SDS011;58918;51.652;4.864;2022-09-20T17:09:49;3.45;;;0.70;;
71196;SDS011;58918;51.652;4.864;2022-09-20T17:12:17;2.97;;;0.75;;
71196;SDS011;58918;51.652;4.864;2022-09-20T17:14:47;5.30;;;0.77;;
71196;SDS011;58918;51.652;4.864;2022-09-20T17:17:19;4.28;;;0.85;;
71196;SDS011;58918;51.652;4.864;2022-09-20T17:19:51;2.28;;;0.80;;
71196;SDS011;58918;51.652;4.864;2022-09-20T17:22:18;2.42;;;0.80;;
71196;SDS011;58918;51.652;4.864;2022-09-20T17:24:46;2.67;;;0.75;;
71196;SDS011;58918;51.652;4.864;2022-09-20T17:29:42;4.38;;;0.93;;
71196;SDS011;58918;51.652;4.864;2022-09-20T17:32:09;4.40;;;0.93;;
71196;SDS011;58918;51.652;4.864;2022-09-20T17:34:36;3.78;;;0.98;;
71196;SDS011;58918;51.652;4.864;2022-09-20T17:37:04;5.38;;;1.52;;
71196;SDS011;58918;51.652;4.864;2022-09-20T17:39:31;6.80;;;1.02;;
71196;SDS011;58918;51.652;4.864;2022-09-20T17:41:58;4.55;;;0.80;;
71196;SDS011;58918;51.652;4.864;2022-09-20T17:44:26;6.55;;;1.05;;
71196;SDS011;58918;51.652;4.864;2022-09-20T17:46:53;5.43;;;1.40;;
71196;SDS011;58918;51.652;4.864;2022-09-20T17:49:21;3.47;;;0.80;;
71196;SDS011;58918;51.652;4.864;2022-09-20T17:51:52;3.45;;;0.80;;
71196;SDS011;58918;51.652;4.864;2022-09-20T17:54:21;3.38;;;0.75;;
71196;SDS011;58918;51.652;4.864;2022-09-20T17:56:50;3.95;;;1.10;;
71196;SDS011;58918;51.652;4.864;2022-09-20T18:01:46;2.85;;;0.80;;
71196;SDS011;58918;51.652;4.864;2022-09-20T18:04:14;2.45;;;0.90;;
71196;SDS011;58918;51.652;4.864;2022-09-20T18:06:45;5.20;;;0.80;;
71196;SDS011;58918;51.652;4.864;2022-09-20T18:09:14;6.95;;;0.98;;
71196;SDS011;58918;51.652;4.864;2022-09-20T18:11:51;10.43;;;1.17;;
71196;SDS011;58918;51.652;4.864;2022-09-20T18:14:19;11.35;;;1.08;;
71196;SDS011;58918;51.652;4.864;2022-09-20T18:16:51;6.05;;;1.10;;
71196;SDS011;58918;51.652;4.864;2022-09-20T18:19:20;5.32;;;0.98;;
71196;SDS011;58918;51.652;4.864;2022-09-20T18:21:48;6.47;;;0.70;;
71196;SDS011;58918;51.652;4.864;2022-09-20T18:24:15;3.67;;;0.55;;
71196;SDS011;58918;51.652;4.864;2022-09-20T18:26:42;5.85;;;1.02;;
71196;SDS011;58918;51.652;4.864;2022-09-20T18:29:13;2.42;;;0.70;;
71196;SDS011;58918;51.652;4.864;2022-09-20T18:31:52;11.13;;;0.95;;
71196;SDS011;58918;51.652;4.864;2022-09-20T18:34:20;9.13;;;0.90;;
71196;SDS011;58918;51.652;4.864;2022-09-20T18:36:55;2.45;;;0.73;;
71196;SDS011;58918;51.652;4.864;2022-09-20T18:39:27;5.45;;;1.00;;
71196;SDS011;58918;51.652;4.864;2022-09-20T18:41:54;4.22;;;1.17;;
71196;SDS011;58918;51.652;4.864;2022-09-20T18:44:22;3.78;;;1.00;;
71196;SDS011;58918;51.652;4.864;2022-09-20T18:46:49;4.50;;;1.23;;
71196;SDS011;58918;51.652;4.864;2022-09-20T18:49:20;7.20;;;1.17;;
71196;SDS011;58918;51.652;4.864;2022-09-20T18:51:47;5.28;;;1.08;;
71196;SDS011;58918;51.652;4.864;2022-09-20T18:54:15;4.35;;;1.27;;
71196;SDS011;58918;51.652;4.864;2022-09-20T18:56:43;6.15;;;1.30;;
71196;SDS011;58918;51.652;4.864;2022-09-20T18:59:15;7.95;;;1.40;;
71196;SDS011;58918;51.652;4.864;2022-09-20T19:06:50;7.07;;;1.45;;
71196;SDS011;58918;51.652;4.864;2022-09-20T19:12:01;3.60;;;1.17;;
71196;SDS011;58918;51.652;4.864;2022-09-20T19:14:36;5.47;;;1.17;;
71196;SDS011;58918;51.652;4.864;2022-09-20T19:17:05;4.65;;;1.40;;
71196;SDS011;58918;51.652;4.864;2022-09-20T19:19:43;10.23;;;1.90;;
71196;SDS011;58918;51.652;4.864;2022-09-20T19:24:50;6.28;;;1.23;;
71196;SDS011;58918;51.652;4.864;2022-09-20T19:27:21;11.63;;;1.60;;
71196;SDS011;58918;51.652;4.864;2022-09-20T19:29:49;6.60;;;1.33;;
71196;SDS011;58918;51.652;4.864;2022-09-20T19:32:17;5.25;;;1.17;;
71196;SDS011;58918;51.652;4.864;2022-09-20T19:34:50;8.23;;;1.35;;
71196;SDS011;58918;51.652;4.864;2022-09-20T19:47:41;6.00;;;1.73;;
71196;SDS011;58918;51.652;4.864;2022-09-20T19:50:13;6.07;;;2.28;;
71196;SDS011;58918;51.652;4.864;2022-09-20T19:52:41;6.22;;;2.15;;
71196;SDS011;58918;51.652;4.864;2022-09-20T19:55:10;7.13;;;2.65;;
71196;SDS011;58918;51.652;4.864;2022-09-20T19:57:44;7.13;;;2.03;;
71196;SDS011;58918;51.652;4.864;2022-09-20T20:00:13;10.50;;;2.33;;
71196;SDS011;58918;51.652;4.864;2022-09-20T20:02:41;6.45;;;2.25;;
71196;SDS011;58918;51.652;4.864;2022-09-20T20:10:24;5.40;;;2.05;;
71196;SDS011;58918;51.652;4.864;2022-09-20T20:20:48;5.95;;;1.80;;
71196;SDS011;58918;51.652;4.864;2022-09-20T20:26:08;9.65;;;2.10;;
71196;SDS011;58918;51.652;4.864;2022-09-20T20:28:35;6.78;;;2.00;;
71196;SDS011;58918;51.652;4.864;2022-09-20T20:31:03;5.63;;;1.95;;
71196;SDS011;58918;51.652;4.864;2022-09-20T20:33:31;5.55;;;2.10;;
71196;SDS011;58918;51.652;4.864;2022-09-20T20:35:59;5.82;;;1.95;;
71196;SDS011;58918;51.652;4.864;2022-09-20T20:38:27;7.15;;;2.95;;
71196;SDS011;58918;51.652;4.864;2022-09-20T20:43:32;6.50;;;1.80;;